createdAt,value
2019-03-31T00:00:19.777Z,9.01
2019-03-31T00:01:23.987Z,9.01
2019-03-31T00:02:28.187Z,9.02
2019-03-31T00:03:32.417Z,9.02
2019-03-31T00:04:36.640Z,9.00
2019-03-31T00:05:40.871Z,8.97
2019-03-31T00:06:45.044Z,8.95
2019-03-31T00:07:49.330Z,8.93
2019-03-31T00:08:53.523Z,8.92
2019-03-31T00:09:57.742Z,8.89
2019-03-31T00:11:01.934Z,8.87
2019-03-31T00:12:06.126Z,8.85
2019-03-31T00:13:10.359Z,8.84
2019-03-31T00:14:14.576Z,8.84
2019-03-31T00:15:18.918Z,8.83
2019-03-31T00:16:23.093Z,8.83
2019-03-31T00:17:27.301Z,8.83
2019-03-31T00:18:31.487Z,8.84
2019-03-31T00:19:35.700Z,8.84
2019-03-31T00:20:39.947Z,8.82
2019-03-31T00:21:44.144Z,8.80
2019-03-31T00:22:48.366Z,8.77
2019-03-31T00:23:52.548Z,8.75
2019-03-31T00:24:56.654Z,8.74
2019-03-31T00:26:01.044Z,8.73
2019-03-31T00:27:05.192Z,8.72
2019-03-31T00:28:09.377Z,8.68
2019-03-31T00:29:13.596Z,8.64
2019-03-31T00:30:17.917Z,8.60
2019-03-31T00:31:22.760Z,8.57
2019-03-31T00:32:26.316Z,8.55
2019-03-31T00:33:30.513Z,8.55
2019-03-31T00:34:34.714Z,8.57
2019-03-31T00:35:38.980Z,8.61
2019-03-31T00:36:43.180Z,8.64
2019-03-31T00:37:47.407Z,8.65
2019-03-31T00:38:51.758Z,8.64
2019-03-31T00:39:55.971Z,8.61
2019-03-31T00:41:00.152Z,8.59
2019-03-31T00:42:04.394Z,8.61
2019-03-31T00:43:08.608Z,8.61
2019-03-31T00:44:12.896Z,8.59
2019-03-31T00:45:17.052Z,8.57
2019-03-31T00:46:21.311Z,8.56
2019-03-31T00:47:25.481Z,8.55
2019-03-31T00:48:29.713Z,8.55
2019-03-31T00:49:33.921Z,8.56
2019-03-31T00:50:38.204Z,8.55
2019-03-31T00:51:42.466Z,8.54
2019-03-31T00:52:46.701Z,8.51
2019-03-31T00:53:50.881Z,8.49
2019-03-31T00:54:55.091Z,8.46
2019-03-31T00:55:59.274Z,8.42
2019-03-31T00:57:03.516Z,8.35
2019-03-31T00:58:07.709Z,8.30
2019-03-31T00:59:11.919Z,8.26
2019-03-31T01:00:16.086Z,8.22
2019-03-31T01:01:20.346Z,8.17
2019-03-31T01:02:24.592Z,8.12
2019-03-31T01:03:28.860Z,8.06
2019-03-31T01:04:33.158Z,8.03
2019-03-31T01:05:37.259Z,7.99
2019-03-31T01:06:41.522Z,7.93
2019-03-31T01:07:45.686Z,7.89
2019-03-31T01:08:49.854Z,7.86
2019-03-31T01:09:54.159Z,7.84
2019-03-31T01:10:58.325Z,7.80
2019-03-31T01:12:02.633Z,7.79
2019-03-31T01:13:06.893Z,7.79
2019-03-31T01:14:11.043Z,7.78
2019-03-31T01:15:15.331Z,7.74
2019-03-31T01:16:19.452Z,7.71
2019-03-31T01:17:23.812Z,7.69
2019-03-31T01:18:27.945Z,7.69
2019-03-31T01:19:32.184Z,7.70
2019-03-31T01:20:36.423Z,7.68
2019-03-31T01:21:40.631Z,7.66
2019-03-31T01:22:44.723Z,7.65
2019-03-31T01:23:49.009Z,7.66
2019-03-31T01:24:56.093Z,7.67
2019-03-31T01:26:00.581Z,7.67
2019-03-31T01:27:03.464Z,7.66
2019-03-31T01:28:07.698Z,7.66
2019-03-31T01:29:11.984Z,7.66
2019-03-31T01:30:16.120Z,7.67
2019-03-31T01:31:20.441Z,7.68
2019-03-31T01:32:24.628Z,7.68
2019-03-31T01:33:28.804Z,7.69
2019-03-31T01:34:33.092Z,7.71
2019-03-31T01:35:37.234Z,7.71
2019-03-31T01:36:41.472Z,7.73
2019-03-31T01:37:45.554Z,7.74
2019-03-31T01:38:49.711Z,7.74
2019-03-31T01:39:53.965Z,7.74
2019-03-31T01:40:58.168Z,7.75
2019-03-31T01:42:02.413Z,7.76
2019-03-31T01:43:06.574Z,7.77
2019-03-31T01:44:10.777Z,7.79
2019-03-31T01:45:15.099Z,7.81
2019-03-31T01:46:19.219Z,7.82
2019-03-31T01:47:23.548Z,7.83
2019-03-31T01:48:27.659Z,7.86
2019-03-31T01:49:31.879Z,7.88
2019-03-31T01:50:36.117Z,7.90
2019-03-31T01:51:40.342Z,7.94
2019-03-31T01:52:44.569Z,7.96
2019-03-31T01:53:48.761Z,7.99
2019-03-31T01:54:53.080Z,8.01
2019-03-31T01:55:57.367Z,8.03
2019-03-31T01:57:01.475Z,8.06
2019-03-31T01:58:05.716Z,8.09
2019-03-31T01:59:10.016Z,8.11
2019-03-31T02:00:14.174Z,8.13
2019-03-31T02:01:18.386Z,8.15
2019-03-31T02:02:22.622Z,8.18
2019-03-31T02:03:26.861Z,8.21
2019-03-31T02:04:31.094Z,8.25
2019-03-31T02:05:35.307Z,8.27
2019-03-31T02:06:39.524Z,8.26
2019-03-31T02:07:43.781Z,8.25
2019-03-31T02:08:47.950Z,8.25
2019-03-31T02:09:52.298Z,8.25
2019-03-31T02:10:56.470Z,8.26
2019-03-31T02:12:00.591Z,8.25
2019-03-31T02:13:04.862Z,8.26
2019-03-31T02:14:09.060Z,8.26
2019-03-31T02:15:13.283Z,8.26
2019-03-31T02:16:17.446Z,8.27
2019-03-31T02:17:21.783Z,8.26
2019-03-31T02:18:25.881Z,8.23
2019-03-31T02:19:30.105Z,8.21
2019-03-31T02:20:34.385Z,8.20
2019-03-31T02:21:38.592Z,8.19
2019-03-31T02:22:42.816Z,8.17
2019-03-31T02:23:47.046Z,8.16
2019-03-31T02:24:51.359Z,8.17
2019-03-31T02:25:55.609Z,8.15
2019-03-31T02:26:59.736Z,8.12
2019-03-31T02:28:03.951Z,8.10
2019-03-31T02:29:08.183Z,8.11
2019-03-31T02:30:12.410Z,8.11
2019-03-31T02:31:16.635Z,8.10
2019-03-31T02:32:24.146Z,8.09
2019-03-31T02:33:25.049Z,8.08
2019-03-31T02:34:29.326Z,8.08
2019-03-31T02:35:33.513Z,8.10
2019-03-31T02:36:37.737Z,8.13
2019-03-31T02:37:41.977Z,8.17
2019-03-31T02:38:46.167Z,8.21
2019-03-31T02:39:50.412Z,8.24
2019-03-31T02:40:54.637Z,8.24
2019-03-31T02:41:58.848Z,8.24
2019-03-31T02:43:03.043Z,8.23
2019-03-31T02:44:07.232Z,8.22
2019-03-31T02:45:11.499Z,8.19
2019-03-31T02:46:15.723Z,8.16
2019-03-31T02:47:19.830Z,8.13
2019-03-31T02:48:24.118Z,8.09
2019-03-31T02:49:28.338Z,8.08
2019-03-31T02:50:32.555Z,8.07
2019-03-31T02:51:36.722Z,8.06
2019-03-31T02:52:41.029Z,8.06
2019-03-31T02:53:45.178Z,8.06
2019-03-31T02:54:49.503Z,8.05
2019-03-31T02:55:53.693Z,8.06
2019-03-31T02:56:57.975Z,8.07
2019-03-31T02:58:02.133Z,8.05
2019-03-31T02:59:06.370Z,8.02
2019-03-31T03:00:10.593Z,7.98
2019-03-31T03:01:14.794Z,7.95
2019-03-31T03:02:18.904Z,7.90
2019-03-31T03:03:23.156Z,7.86
2019-03-31T03:04:27.431Z,7.84
2019-03-31T03:05:31.607Z,7.82
2019-03-31T03:06:35.810Z,7.82
2019-03-31T03:07:40.008Z,7.84
2019-03-31T03:08:44.218Z,7.85
2019-03-31T03:09:48.488Z,7.86
2019-03-31T03:10:52.689Z,7.86
2019-03-31T03:11:56.894Z,7.87
2019-03-31T03:13:01.070Z,7.90
2019-03-31T03:14:05.303Z,7.92
2019-03-31T03:15:09.535Z,7.91
2019-03-31T03:16:13.726Z,7.90
2019-03-31T03:17:17.957Z,7.91
2019-03-31T03:18:22.140Z,7.94
2019-03-31T03:19:26.346Z,7.96
2019-03-31T03:20:30.586Z,7.98
2019-03-31T03:21:34.675Z,8.00
2019-03-31T03:22:38.972Z,8.00
2019-03-31T03:23:43.187Z,8.01
2019-03-31T03:24:47.461Z,8.02
2019-03-31T03:25:56.190Z,8.04
2019-03-31T03:26:55.955Z,8.07
2019-03-31T03:28:00.136Z,8.10
2019-03-31T03:29:04.325Z,8.12
2019-03-31T03:30:08.552Z,8.14
2019-03-31T03:31:16.142Z,8.16
2019-03-31T03:32:17.071Z,8.18
2019-03-31T03:33:21.239Z,8.19
2019-03-31T03:34:25.404Z,8.19
2019-03-31T03:35:29.669Z,8.20
2019-03-31T03:36:33.878Z,8.21
2019-03-31T03:37:38.117Z,8.22
2019-03-31T03:38:42.230Z,8.24
2019-03-31T03:39:46.514Z,8.25
2019-03-31T03:40:50.818Z,8.27
2019-03-31T03:41:54.984Z,8.28
2019-03-31T03:42:59.210Z,8.28
2019-03-31T03:44:03.491Z,8.29
2019-03-31T03:45:07.835Z,8.31
2019-03-31T03:46:11.984Z,8.32
2019-03-31T03:47:16.174Z,8.32
2019-03-31T03:48:20.349Z,8.32
2019-03-31T03:49:24.598Z,8.33
2019-03-31T03:50:28.761Z,8.34
2019-03-31T03:51:33.027Z,8.35
2019-03-31T03:52:37.220Z,8.36
2019-03-31T03:53:41.468Z,8.37
2019-03-31T03:54:45.762Z,8.39
2019-03-31T03:55:49.962Z,8.41
2019-03-31T03:56:54.150Z,8.42
2019-03-31T03:57:58.381Z,8.40
2019-03-31T03:59:02.589Z,8.40
2019-03-31T04:00:06.831Z,8.40
2019-03-31T04:01:11.021Z,8.39
2019-03-31T04:02:15.241Z,8.39
2019-03-31T04:03:29.834Z,8.37
2019-03-31T04:04:23.715Z,8.33
2019-03-31T04:05:27.990Z,8.30
2019-03-31T04:06:32.211Z,8.27
2019-03-31T04:07:36.371Z,8.24
2019-03-31T04:08:40.579Z,8.20
2019-03-31T04:09:44.824Z,8.18
2019-03-31T04:10:49.039Z,8.16
2019-03-31T04:11:53.446Z,8.14
2019-03-31T04:12:57.524Z,8.12
2019-03-31T04:14:01.750Z,8.11
2019-03-31T04:15:05.955Z,8.11
2019-03-31T04:16:10.331Z,8.09
2019-03-31T04:17:14.491Z,8.09
2019-03-31T04:18:18.776Z,8.08
2019-03-31T04:19:22.894Z,8.07
2019-03-31T04:20:27.210Z,8.06
2019-03-31T04:21:31.384Z,8.06
2019-03-31T04:22:35.682Z,8.05
2019-03-31T04:23:39.833Z,8.06
2019-03-31T04:24:43.994Z,8.09
2019-03-31T04:25:48.330Z,8.11
2019-03-31T04:26:52.589Z,8.13
2019-03-31T04:27:56.859Z,8.13
2019-03-31T04:29:01.038Z,8.14
2019-03-31T04:30:05.248Z,8.15
2019-03-31T04:31:09.472Z,8.17
2019-03-31T04:32:13.728Z,8.18
2019-03-31T04:33:17.976Z,8.19
2019-03-31T04:34:22.265Z,8.18
2019-03-31T04:35:26.405Z,8.18
2019-03-31T04:36:30.604Z,8.18
2019-03-31T04:37:34.834Z,8.18
2019-03-31T04:38:39.074Z,8.16
2019-03-31T04:39:43.271Z,8.15
2019-03-31T04:40:47.431Z,8.13
2019-03-31T04:41:51.677Z,8.11
2019-03-31T04:42:55.879Z,8.09
2019-03-31T04:44:00.065Z,8.09
2019-03-31T04:45:04.366Z,8.09
2019-03-31T04:46:08.554Z,8.08
2019-03-31T04:47:12.805Z,8.09
2019-03-31T04:48:17.066Z,8.10
2019-03-31T04:49:21.231Z,8.11
2019-03-31T04:50:25.497Z,8.10
2019-03-31T04:51:29.799Z,8.11
2019-03-31T04:52:34.023Z,8.10
2019-03-31T04:53:38.162Z,8.11
2019-03-31T04:54:42.364Z,8.11
2019-03-31T04:55:46.586Z,8.10
2019-03-31T04:56:50.837Z,8.10
2019-03-31T04:57:55.048Z,8.12
2019-03-31T04:58:59.257Z,8.13
2019-03-31T05:00:03.489Z,8.14
2019-03-31T05:01:07.692Z,8.15
2019-03-31T05:02:11.990Z,8.15
2019-03-31T05:03:16.149Z,8.15
2019-03-31T05:04:20.401Z,8.14
2019-03-31T05:05:24.632Z,8.13
2019-03-31T05:06:28.813Z,8.14
2019-03-31T05:07:33.120Z,8.14
2019-03-31T05:08:37.284Z,8.15
2019-03-31T05:09:41.586Z,8.16
2019-03-31T05:10:45.864Z,8.17
2019-03-31T05:11:50.055Z,8.18
2019-03-31T05:12:54.374Z,8.18
2019-03-31T05:13:58.631Z,8.18
2019-03-31T05:15:02.767Z,8.16
2019-03-31T05:16:06.980Z,8.15
2019-03-31T05:17:11.178Z,8.14
2019-03-31T05:18:15.522Z,8.13
2019-03-31T05:19:19.729Z,8.12
2019-03-31T05:20:23.905Z,8.09
2019-03-31T05:21:28.122Z,8.08
2019-03-31T05:22:32.416Z,8.09
2019-03-31T05:23:36.649Z,8.10
2019-03-31T05:24:40.838Z,8.12
2019-03-31T05:25:45.033Z,8.12
2019-03-31T05:26:49.258Z,8.12
2019-03-31T05:27:53.495Z,8.13
2019-03-31T05:28:57.629Z,8.14
2019-03-31T05:30:01.976Z,8.16
2019-03-31T05:31:06.164Z,8.17
2019-03-31T05:32:10.385Z,8.18
2019-03-31T05:33:14.618Z,8.18
2019-03-31T05:34:19.634Z,8.16
2019-03-31T05:35:22.992Z,8.20
2019-03-31T05:36:27.267Z,8.30
2019-03-31T05:37:31.537Z,8.49
2019-03-31T05:38:35.799Z,8.77
2019-03-31T05:39:40.158Z,9.04
2019-03-31T05:40:44.401Z,9.31
2019-03-31T05:41:48.763Z,9.54
2019-03-31T05:42:52.958Z,9.64
2019-03-31T05:44:05.470Z,9.63
2019-03-31T05:45:01.557Z,9.60
2019-03-31T05:46:05.780Z,9.56
2019-03-31T05:47:10.131Z,9.46
2019-03-31T05:48:14.369Z,9.40
2019-03-31T05:49:18.629Z,9.39
2019-03-31T05:50:22.860Z,9.43
2019-03-31T05:51:27.117Z,9.47
2019-03-31T05:52:31.368Z,9.58
2019-03-31T05:53:35.639Z,9.64
2019-03-31T05:54:39.838Z,9.67
2019-03-31T05:55:44.092Z,9.72
2019-03-31T05:56:48.256Z,9.68
2019-03-31T05:57:52.562Z,9.66
2019-03-31T05:58:56.785Z,9.65
2019-03-31T06:00:00.963Z,9.57
2019-03-31T06:01:05.282Z,9.54
2019-03-31T06:02:09.461Z,9.51
2019-03-31T06:03:13.694Z,9.46
2019-03-31T06:04:17.951Z,9.41
2019-03-31T06:05:22.178Z,9.26
2019-03-31T06:06:26.370Z,9.13
2019-03-31T06:07:30.673Z,9.04
2019-03-31T06:08:34.810Z,8.99
2019-03-31T06:09:39.022Z,8.94
2019-03-31T06:10:43.239Z,8.90
2019-03-31T06:11:47.412Z,8.87
2019-03-31T06:12:51.695Z,8.85
2019-03-31T06:13:55.922Z,8.83
2019-03-31T06:15:00.433Z,8.83
2019-03-31T06:16:04.530Z,8.84
2019-03-31T06:17:08.686Z,8.87
2019-03-31T06:18:12.919Z,8.91
2019-03-31T06:19:17.150Z,8.94
2019-03-31T06:20:21.388Z,8.97
2019-03-31T06:21:28.994Z,8.99
2019-03-31T06:22:29.929Z,8.99
2019-03-31T06:23:34.137Z,9.02
2019-03-31T06:24:38.395Z,9.07
2019-03-31T06:25:42.594Z,9.13
2019-03-31T06:26:46.835Z,9.24
2019-03-31T06:27:51.038Z,9.39
2019-03-31T06:28:55.283Z,9.48
2019-03-31T06:29:59.568Z,9.57
2019-03-31T06:31:03.785Z,9.65
2019-03-31T06:32:08.031Z,9.72
2019-03-31T06:33:12.286Z,9.75
2019-03-31T06:34:16.598Z,9.80
2019-03-31T06:35:20.869Z,9.80
2019-03-31T06:36:25.168Z,9.79
2019-03-31T06:37:29.427Z,9.77
2019-03-31T06:38:33.635Z,9.77
2019-03-31T06:39:37.932Z,9.77
2019-03-31T06:40:42.125Z,9.73
2019-03-31T06:41:46.439Z,9.72
2019-03-31T06:42:50.640Z,9.77
2019-03-31T06:43:54.844Z,9.77
2019-03-31T06:44:59.223Z,9.76
2019-03-31T06:46:03.446Z,9.75
2019-03-31T06:47:07.702Z,9.72
2019-03-31T06:48:11.982Z,9.70
2019-03-31T06:49:16.162Z,9.60
2019-03-31T06:50:20.379Z,9.50
2019-03-31T06:51:24.572Z,9.42
2019-03-31T06:52:28.835Z,9.38
2019-03-31T06:53:33.087Z,9.37
2019-03-31T06:54:37.316Z,9.32
2019-03-31T06:55:41.537Z,9.30
2019-03-31T06:56:47.273Z,9.27
2019-03-31T06:57:50.015Z,9.22
2019-03-31T06:58:54.263Z,9.22
2019-03-31T06:59:58.506Z,9.21
2019-03-31T07:01:02.733Z,9.19
2019-03-31T07:02:06.960Z,9.17
2019-03-31T07:03:11.151Z,9.14
2019-03-31T07:04:15.372Z,9.10
2019-03-31T07:05:19.691Z,9.06
2019-03-31T07:06:23.878Z,9.03
2019-03-31T07:07:28.105Z,9.03
2019-03-31T07:08:32.295Z,9.03
2019-03-31T07:09:36.600Z,9.07
2019-03-31T07:10:40.806Z,9.10
2019-03-31T07:11:44.983Z,9.13
2019-03-31T07:12:49.218Z,9.15
2019-03-31T07:13:53.426Z,9.18
2019-03-31T07:14:57.644Z,9.20
2019-03-31T07:16:01.879Z,9.18
2019-03-31T07:17:06.125Z,9.20
2019-03-31T07:18:10.340Z,9.26
2019-03-31T07:19:14.519Z,9.32
2019-03-31T07:20:18.860Z,9.36
2019-03-31T07:21:23.078Z,9.40
2019-03-31T07:22:27.323Z,9.45
2019-03-31T07:23:31.653Z,9.49
2019-03-31T07:24:35.821Z,9.51
2019-03-31T07:25:40.147Z,9.52
2019-03-31T07:26:44.423Z,9.54
2019-03-31T07:27:48.620Z,9.54
2019-03-31T07:28:52.823Z,9.56
2019-03-31T07:29:57.085Z,9.58
2019-03-31T07:31:01.315Z,9.57
2019-03-31T07:32:05.535Z,9.55
2019-03-31T07:33:09.771Z,9.48
2019-03-31T07:34:14.008Z,9.38
2019-03-31T07:35:19.088Z,9.32
2019-03-31T07:36:22.553Z,9.24
2019-03-31T07:37:26.727Z,9.20
2019-03-31T07:38:38.675Z,9.18
2019-03-31T07:39:35.258Z,9.18
2019-03-31T07:40:39.710Z,9.17
2019-03-31T07:41:43.749Z,9.18
2019-03-31T07:42:50.898Z,9.19
2019-03-31T07:43:52.155Z,9.23
2019-03-31T07:44:56.496Z,9.28
2019-03-31T07:46:00.720Z,9.28
2019-03-31T07:47:04.989Z,9.25
2019-03-31T07:48:09.317Z,9.23
2019-03-31T07:49:13.436Z,9.21
2019-03-31T07:50:17.662Z,9.25
2019-03-31T07:51:21.975Z,9.31
2019-03-31T07:52:26.264Z,9.38
2019-03-31T07:53:30.422Z,9.40
2019-03-31T07:54:34.662Z,9.43
2019-03-31T07:55:39.118Z,9.49
2019-03-31T07:56:43.147Z,9.50
2019-03-31T07:57:47.332Z,9.46
2019-03-31T07:58:51.652Z,9.44
2019-03-31T07:59:56.686Z,9.44
2019-03-31T08:01:00.104Z,9.41
2019-03-31T08:02:04.287Z,9.38
2019-03-31T08:03:08.500Z,9.39
2019-03-31T08:04:12.753Z,9.37
2019-03-31T08:05:16.977Z,9.40
2019-03-31T08:06:21.279Z,9.42
2019-03-31T08:07:25.481Z,9.42
2019-03-31T08:08:29.778Z,9.42
2019-03-31T08:09:33.942Z,9.42
2019-03-31T08:10:38.176Z,9.37
2019-03-31T08:11:42.382Z,9.36
2019-03-31T08:12:46.669Z,9.34
2019-03-31T08:13:50.940Z,9.33
2019-03-31T08:14:55.130Z,9.35
2019-03-31T08:15:59.359Z,9.38
2019-03-31T08:17:03.604Z,9.42
2019-03-31T08:18:07.944Z,9.45
2019-03-31T08:19:12.108Z,9.49
2019-03-31T08:20:16.410Z,9.56
2019-03-31T08:21:20.662Z,9.62
2019-03-31T08:22:24.841Z,9.68
2019-03-31T08:23:29.075Z,9.72
2019-03-31T08:24:33.364Z,9.73
2019-03-31T08:25:37.583Z,9.69
2019-03-31T08:26:41.899Z,9.62
2019-03-31T08:27:46.171Z,9.58
2019-03-31T08:28:50.392Z,9.54
2019-03-31T08:30:00.371Z,9.48
2019-03-31T08:30:58.814Z,9.46
2019-03-31T08:32:03.080Z,9.41
2019-03-31T08:33:07.351Z,9.36
2019-03-31T08:34:11.636Z,9.32
2019-03-31T08:35:15.798Z,9.29
2019-03-31T08:36:20.114Z,9.30
2019-03-31T08:37:24.300Z,9.33
2019-03-31T08:38:28.574Z,9.38
2019-03-31T08:39:32.886Z,9.43
2019-03-31T08:40:37.041Z,9.48
2019-03-31T08:41:41.328Z,9.52
2019-03-31T08:42:45.597Z,9.57
2019-03-31T08:43:49.796Z,9.62
2019-03-31T08:44:53.997Z,9.60
2019-03-31T08:45:58.341Z,9.63
2019-03-31T08:47:02.488Z,9.64
2019-03-31T08:48:06.740Z,9.63
2019-03-31T08:49:10.978Z,9.57
2019-03-31T08:50:15.110Z,9.57
2019-03-31T08:51:19.384Z,9.59
2019-03-31T08:52:23.738Z,9.63
2019-03-31T08:53:27.991Z,9.67
2019-03-31T08:54:32.248Z,9.71
2019-03-31T08:55:36.515Z,9.72
2019-03-31T08:56:40.760Z,9.71
2019-03-31T08:57:45.086Z,9.69
2019-03-31T08:58:49.346Z,9.66
2019-03-31T08:59:53.547Z,9.64
2019-03-31T09:00:57.798Z,9.66
2019-03-31T09:02:03.459Z,9.69
2019-03-31T09:03:06.201Z,9.71
2019-03-31T09:04:10.533Z,9.74
2019-03-31T09:05:14.694Z,9.78
2019-03-31T09:06:18.956Z,9.79
2019-03-31T09:07:23.134Z,9.78
2019-03-31T09:08:27.502Z,9.79
2019-03-31T09:09:31.783Z,9.77
2019-03-31T09:10:35.989Z,9.76
2019-03-31T09:11:40.297Z,9.80
2019-03-31T09:12:44.521Z,9.83
2019-03-31T09:13:48.769Z,9.86
2019-03-31T09:14:52.993Z,9.89
2019-03-31T09:15:57.235Z,9.91
2019-03-31T09:17:01.442Z,9.92
2019-03-31T09:18:05.703Z,9.93
2019-03-31T09:19:10.043Z,9.95
2019-03-31T09:20:14.251Z,9.96
2019-03-31T09:21:18.514Z,9.99
2019-03-31T09:22:22.745Z,10.02
2019-03-31T09:23:26.939Z,10.00
2019-03-31T09:24:31.197Z,10.01
2019-03-31T09:25:35.485Z,9.99
2019-03-31T09:26:39.690Z,10.00
2019-03-31T09:27:43.950Z,10.01
2019-03-31T09:28:48.197Z,10.03
2019-03-31T09:29:52.408Z,10.07
2019-03-31T09:30:56.726Z,10.13
2019-03-31T09:32:00.953Z,10.20
2019-03-31T09:33:05.200Z,10.26
2019-03-31T09:34:09.456Z,10.27
2019-03-31T09:35:13.747Z,10.25
2019-03-31T09:36:17.920Z,10.22
2019-03-31T09:37:22.258Z,10.19
2019-03-31T09:38:26.499Z,10.20
2019-03-31T09:39:30.742Z,10.24
2019-03-31T09:40:34.982Z,10.25
2019-03-31T09:41:39.297Z,10.25
2019-03-31T09:42:43.503Z,10.24
2019-03-31T09:43:47.748Z,10.22
2019-03-31T09:44:51.993Z,10.17
2019-03-31T09:45:56.264Z,10.09
2019-03-31T09:47:00.510Z,10.07
2019-03-31T09:48:04.764Z,10.03
2019-03-31T09:49:08.989Z,10.00
2019-03-31T09:50:16.859Z,9.89
2019-03-31T09:51:17.501Z,9.80
2019-03-31T09:52:21.793Z,9.70
2019-03-31T09:53:26.027Z,9.69
2019-03-31T09:54:30.237Z,9.67
2019-03-31T09:55:34.475Z,9.66
2019-03-31T09:56:38.697Z,9.63
2019-03-31T09:57:42.911Z,9.63
2019-03-31T09:58:47.244Z,9.71
2019-03-31T09:59:51.434Z,9.76
2019-03-31T10:00:55.772Z,9.79
2019-03-31T10:01:59.910Z,9.84
2019-03-31T10:03:04.127Z,9.86
2019-03-31T10:04:08.408Z,9.87
2019-03-31T10:05:12.672Z,9.89
2019-03-31T10:06:29.659Z,9.93
2019-03-31T10:07:23.890Z,9.99
2019-03-31T10:08:25.403Z,10.05
2019-03-31T10:09:29.648Z,10.11
2019-03-31T10:10:34.023Z,10.15
2019-03-31T10:11:38.195Z,10.09
2019-03-31T10:12:42.491Z,10.09
2019-03-31T10:13:46.708Z,10.06
2019-03-31T10:14:54.123Z,10.06
2019-03-31T10:15:55.281Z,10.05
2019-03-31T10:16:59.392Z,10.03
2019-03-31T10:18:03.721Z,10.00
2019-03-31T10:19:07.903Z,9.96
2019-03-31T10:20:12.207Z,10.00
2019-03-31T10:21:16.432Z,10.08
2019-03-31T10:22:20.673Z,10.15
2019-03-31T10:23:24.910Z,10.22
2019-03-31T10:24:29.175Z,10.27
2019-03-31T10:25:33.417Z,10.28
2019-03-31T10:26:37.671Z,10.27
2019-03-31T10:27:41.929Z,10.28
2019-03-31T10:28:46.148Z,10.19
2019-03-31T10:29:50.390Z,10.15
2019-03-31T10:30:54.620Z,10.09
2019-03-31T10:31:58.938Z,10.08
2019-03-31T10:33:03.080Z,10.09
2019-03-31T10:34:07.358Z,10.14
2019-03-31T10:35:11.584Z,10.18
2019-03-31T10:36:15.853Z,10.20
2019-03-31T10:37:20.102Z,10.25
2019-03-31T10:38:24.307Z,10.34
2019-03-31T10:39:28.602Z,10.44
2019-03-31T10:40:32.966Z,10.51
2019-03-31T10:41:37.142Z,10.55
2019-03-31T10:42:41.410Z,10.59
2019-03-31T10:43:45.669Z,10.56
2019-03-31T10:44:49.914Z,10.49
2019-03-31T10:45:54.186Z,10.41
2019-03-31T10:46:58.658Z,10.30
2019-03-31T10:48:02.683Z,10.23
2019-03-31T10:49:07.003Z,10.21
2019-03-31T10:50:11.220Z,10.18
2019-03-31T10:51:15.502Z,10.17
2019-03-31T10:52:19.727Z,10.20
2019-03-31T10:53:24.069Z,10.28
2019-03-31T10:54:28.244Z,10.38
2019-03-31T10:55:32.604Z,10.46
2019-03-31T10:56:36.765Z,10.61
2019-03-31T10:57:41.012Z,10.74
2019-03-31T10:58:45.281Z,10.87
2019-03-31T10:59:49.523Z,10.96
2019-03-31T11:00:53.816Z,10.99
2019-03-31T11:01:58.040Z,10.87
2019-03-31T11:03:02.272Z,10.69
2019-03-31T11:04:06.500Z,10.59
2019-03-31T11:05:10.726Z,10.50
2019-03-31T11:06:15.047Z,10.47
2019-03-31T11:07:19.241Z,10.43
2019-03-31T11:08:23.571Z,10.37
2019-03-31T11:09:27.756Z,10.36
2019-03-31T11:10:32.093Z,10.39
2019-03-31T11:11:36.292Z,10.45
2019-03-31T11:12:40.651Z,10.46
2019-03-31T11:13:44.877Z,10.43
2019-03-31T11:14:49.165Z,10.37
2019-03-31T11:15:53.325Z,10.29
2019-03-31T11:16:57.551Z,10.29
2019-03-31T11:18:01.837Z,10.33
2019-03-31T11:19:06.111Z,10.36
2019-03-31T11:20:10.358Z,10.42
2019-03-31T11:21:14.606Z,10.45
2019-03-31T11:22:18.877Z,10.47
2019-03-31T11:23:23.203Z,10.48
2019-03-31T11:24:27.291Z,10.54
2019-03-31T11:25:31.562Z,10.61
2019-03-31T11:26:35.839Z,10.60
2019-03-31T11:27:40.093Z,10.58
2019-03-31T11:28:44.412Z,10.53
2019-03-31T11:29:48.582Z,10.49
2019-03-31T11:30:52.929Z,10.46
2019-03-31T11:31:57.228Z,10.49
2019-03-31T11:33:01.475Z,10.45
2019-03-31T11:34:05.669Z,10.49
2019-03-31T11:35:09.940Z,10.60
2019-03-31T11:36:14.186Z,10.77
2019-03-31T11:37:18.453Z,10.99
2019-03-31T11:38:22.822Z,11.07
2019-03-31T11:39:27.016Z,11.12
2019-03-31T11:40:31.249Z,11.14
2019-03-31T11:41:35.555Z,11.20
2019-03-31T11:42:39.688Z,11.32
2019-03-31T11:43:43.995Z,11.47
2019-03-31T11:44:48.270Z,11.57
2019-03-31T11:45:52.599Z,11.61
2019-03-31T11:46:56.834Z,11.51
2019-03-31T11:48:01.075Z,11.40
2019-03-31T11:49:05.347Z,11.34
2019-03-31T11:50:09.580Z,11.28
2019-03-31T11:51:13.905Z,11.37
2019-03-31T11:52:19.112Z,11.58
2019-03-31T11:53:23.040Z,11.76
2019-03-31T11:54:27.208Z,11.69
2019-03-31T11:55:31.479Z,11.60
2019-03-31T11:56:35.731Z,11.63
2019-03-31T11:57:39.969Z,11.63
2019-03-31T11:58:44.185Z,11.66
2019-03-31T11:59:49.838Z,11.72
2019-03-31T12:00:52.779Z,11.83
2019-03-31T12:01:57.016Z,11.84
2019-03-31T12:03:01.380Z,11.76
2019-03-31T12:04:05.544Z,11.78
2019-03-31T12:05:09.766Z,11.87
2019-03-31T12:06:14.019Z,11.85
2019-03-31T12:07:27.726Z,11.83
2019-03-31T12:08:22.695Z,11.83
2019-03-31T12:09:26.991Z,11.91
2019-03-31T12:10:31.198Z,12.11
2019-03-31T12:11:35.561Z,12.36
2019-03-31T12:12:39.823Z,12.59
2019-03-31T12:13:44.186Z,12.86
2019-03-31T12:14:59.894Z,13.09
2019-03-31T12:15:52.690Z,13.21
2019-03-31T12:16:56.943Z,13.27
2019-03-31T12:18:01.296Z,13.28
2019-03-31T12:19:05.545Z,13.21
2019-03-31T12:20:09.897Z,13.22
2019-03-31T12:21:14.193Z,13.26
2019-03-31T12:22:18.452Z,13.23
2019-03-31T12:23:22.844Z,13.05
2019-03-31T12:24:27.056Z,12.93
2019-03-31T12:25:31.327Z,12.74
2019-03-31T12:26:35.680Z,12.55
2019-03-31T12:27:39.893Z,12.52
2019-03-31T12:28:44.172Z,12.61
2019-03-31T12:29:48.425Z,12.62
2019-03-31T12:30:52.811Z,12.73
2019-03-31T12:31:56.994Z,12.83
2019-03-31T12:33:01.365Z,12.87
2019-03-31T12:34:08.597Z,12.88
2019-03-31T12:35:11.948Z,12.88
2019-03-31T12:36:16.322Z,12.91
2019-03-31T12:37:20.629Z,12.89
2019-03-31T12:38:24.928Z,12.86
2019-03-31T12:39:29.369Z,12.90
2019-03-31T12:40:33.646Z,12.87
2019-03-31T12:41:37.946Z,12.89
2019-03-31T12:42:42.250Z,12.86
2019-03-31T12:43:46.514Z,13.02
2019-03-31T12:44:50.940Z,13.11
2019-03-31T12:45:55.219Z,12.95
2019-03-31T12:46:59.516Z,12.90
2019-03-31T12:48:03.824Z,12.75
2019-03-31T12:49:08.092Z,12.76
2019-03-31T12:50:12.443Z,12.64
2019-03-31T12:51:16.763Z,12.54
2019-03-31T12:52:21.112Z,12.45
2019-03-31T12:53:25.313Z,12.46
2019-03-31T12:54:29.655Z,12.48
2019-03-31T12:55:33.922Z,12.47
2019-03-31T12:56:38.216Z,12.40
2019-03-31T12:57:42.536Z,12.37
2019-03-31T12:58:46.948Z,12.37
2019-03-31T12:59:51.229Z,12.39
2019-03-31T13:00:55.549Z,12.40
2019-03-31T13:01:59.901Z,12.41
2019-03-31T13:03:04.218Z,12.52
2019-03-31T13:04:08.480Z,12.61
2019-03-31T13:05:12.749Z,12.56
2019-03-31T13:06:17.101Z,12.52
2019-03-31T13:07:21.424Z,12.58
2019-03-31T13:08:25.765Z,12.66
2019-03-31T13:09:30.131Z,12.76
2019-03-31T13:10:34.451Z,12.83
2019-03-31T13:11:38.770Z,12.77
2019-03-31T13:12:43.079Z,12.78
2019-03-31T13:13:47.393Z,12.92
2019-03-31T13:14:51.853Z,12.90
2019-03-31T13:15:56.172Z,12.83
2019-03-31T13:17:01.627Z,12.72
2019-03-31T13:18:04.764Z,12.70
2019-03-31T13:19:09.099Z,12.57
2019-03-31T13:20:13.408Z,12.56
2019-03-31T13:21:17.642Z,12.56
2019-03-31T13:22:22.016Z,12.63
2019-03-31T13:23:26.289Z,12.85
2019-03-31T13:24:30.610Z,12.85
2019-03-31T13:25:34.926Z,12.78
2019-03-31T13:26:39.137Z,12.76
2019-03-31T13:27:43.618Z,12.84
2019-03-31T13:28:47.884Z,12.88
2019-03-31T13:29:52.204Z,12.76
2019-03-31T13:30:56.508Z,12.74
2019-03-31T13:32:01.015Z,12.68
2019-03-31T13:33:05.297Z,12.70
2019-03-31T13:34:09.691Z,12.68
2019-03-31T13:35:14.004Z,12.72
2019-03-31T13:36:18.280Z,12.67
2019-03-31T13:37:22.665Z,12.54
2019-03-31T13:38:26.853Z,12.38
2019-03-31T13:39:31.206Z,12.33
2019-03-31T13:40:35.515Z,12.31
2019-03-31T13:41:39.811Z,12.31
2019-03-31T13:42:44.120Z,12.26
2019-03-31T13:43:48.377Z,12.19
2019-03-31T13:44:52.840Z,12.20
2019-03-31T13:45:59.972Z,12.29
2019-03-31T13:47:01.362Z,12.33
2019-03-31T13:48:05.637Z,12.37
2019-03-31T13:49:09.985Z,12.38
2019-03-31T13:50:14.332Z,12.38
2019-03-31T13:51:18.620Z,12.32
2019-03-31T13:52:22.997Z,12.27
2019-03-31T13:53:27.264Z,12.23
2019-03-31T13:54:31.608Z,12.25
2019-03-31T13:55:35.920Z,12.30
2019-03-31T13:56:40.436Z,12.41
2019-03-31T13:57:45.195Z,12.47
2019-03-31T13:58:52.628Z,12.61
2019-03-31T13:59:53.145Z,12.62
2019-03-31T14:00:57.622Z,12.54
2019-03-31T14:02:01.696Z,12.45
2019-03-31T14:03:06.077Z,12.35
2019-03-31T14:04:10.358Z,12.16
2019-03-31T14:05:14.739Z,12.11
2019-03-31T14:06:19.012Z,12.05